createdAt,value
2018-08-06T00:02:18.763Z,20.10
2018-08-06T00:04:46.337Z,20.10
2018-08-06T00:07:14.254Z,20.00
2018-08-06T00:09:42.883Z,19.80
2018-08-06T00:12:10.611Z,19.80
2018-08-06T00:14:38.526Z,19.70
2018-08-06T00:17:06.398Z,19.60
2018-08-06T00:19:34.057Z,19.60
2018-08-06T00:22:01.713Z,19.60
2018-08-06T00:24:29.248Z,19.50
2018-08-06T00:26:56.930Z,19.50
2018-08-06T00:29:24.575Z,19.50
2018-08-06T00:31:52.328Z,19.40
2018-08-06T00:34:19.967Z,19.40
2018-08-06T00:36:47.583Z,19.40
2018-08-06T00:39:15.197Z,19.30
2018-08-06T00:41:42.924Z,19.30
2018-08-06T00:44:10.577Z,19.40
2018-08-06T00:46:38.793Z,19.40
2018-08-06T00:49:06.493Z,19.40
2018-08-06T00:51:34.125Z,19.30
2018-08-06T00:54:01.734Z,19.20
2018-08-06T00:56:30.250Z,19.30
2018-08-06T00:58:57.928Z,19.30
2018-08-06T01:01:25.563Z,19.10
2018-08-06T01:03:53.317Z,19.10
2018-08-06T01:06:20.878Z,19.10
2018-08-06T01:08:48.537Z,19.00
2018-08-06T01:11:16.189Z,18.90
2018-08-06T01:13:43.846Z,19.00
2018-08-06T01:16:11.479Z,18.90
2018-08-06T01:18:39.134Z,19.00
2018-08-06T01:21:06.718Z,19.00
2018-08-06T01:23:34.348Z,18.80
2018-08-06T01:26:02.785Z,18.70
2018-08-06T01:28:30.381Z,18.60
2018-08-06T01:30:57.988Z,18.60
2018-08-06T01:33:25.600Z,18.60
2018-08-06T01:35:53.730Z,18.50
2018-08-06T01:38:21.303Z,18.50
2018-08-06T01:40:48.914Z,18.40
2018-08-06T01:43:17.590Z,18.30
2018-08-06T01:45:45.328Z,18.30
2018-08-06T01:48:12.945Z,18.30
2018-08-06T01:50:40.544Z,18.30
2018-08-06T01:53:08.166Z,18.40
2018-08-06T01:55:35.806Z,18.30
2018-08-06T01:58:03.539Z,18.30
2018-08-06T02:00:31.133Z,18.30
2018-08-06T02:03:16.416Z,18.20
2018-08-06T02:05:44.085Z,18.20
2018-08-06T02:08:11.643Z,18.20
2018-08-06T02:10:39.251Z,18.20
2018-08-06T02:13:06.926Z,18.10
2018-08-06T02:15:34.573Z,18.10
2018-08-06T02:18:02.160Z,17.90
2018-08-06T02:20:29.744Z,17.90
2018-08-06T02:22:59.441Z,17.80
2018-08-06T02:25:27.205Z,17.70
2018-08-06T02:27:54.858Z,17.70
2018-08-06T02:30:22.522Z,17.70
2018-08-06T02:32:50.239Z,17.60
2018-08-06T02:35:17.919Z,17.70
2018-08-06T02:37:45.547Z,17.70
2018-08-06T02:40:23.421Z,17.70
2018-08-06T02:42:51.039Z,17.60
2018-08-06T02:45:19.065Z,17.60
2018-08-06T02:47:46.690Z,17.50
2018-08-06T02:50:14.361Z,17.50
2018-08-06T02:52:42.887Z,17.30
2018-08-06T02:55:12.127Z,17.20
2018-08-06T02:57:39.772Z,17.20
2018-08-06T03:00:08.456Z,17.20
2018-08-06T03:02:36.048Z,17.20
2018-08-06T03:05:03.942Z,17.10
2018-08-06T03:07:31.609Z,17.10
2018-08-06T03:09:59.343Z,17.00
2018-08-06T03:12:27.088Z,17.10
2018-08-06T03:14:54.731Z,17.10
2018-08-06T03:17:22.442Z,17.10
2018-08-06T03:19:53.091Z,17.10
2018-08-06T03:22:20.768Z,17.10
2018-08-06T03:24:48.415Z,17.00
2018-08-06T03:27:16.084Z,17.00
2018-08-06T03:29:44.036Z,16.90
2018-08-06T03:32:11.590Z,16.90
2018-08-06T03:34:39.204Z,16.90
2018-08-06T03:37:06.789Z,17.00
2018-08-06T03:39:34.450Z,16.90
2018-08-06T03:42:02.025Z,16.90
2018-08-06T03:44:29.598Z,16.90
2018-08-06T03:46:57.175Z,16.80
2018-08-06T03:49:24.853Z,16.80
2018-08-06T03:51:52.433Z,16.70
2018-08-06T03:54:20.101Z,16.60
2018-08-06T03:56:47.719Z,16.40
2018-08-06T03:59:15.303Z,16.50
2018-08-06T04:01:43.003Z,16.50
2018-08-06T04:04:10.726Z,16.50
2018-08-06T04:06:38.331Z,16.60
2018-08-06T04:09:11.674Z,16.60
2018-08-06T04:14:26.522Z,16.50
2018-08-06T04:16:54.465Z,16.40
2018-08-06T04:19:22.102Z,16.40
2018-08-06T04:21:49.706Z,16.30
2018-08-06T04:24:17.450Z,16.30
2018-08-06T04:26:45.382Z,16.30
2018-08-06T04:29:12.950Z,16.20
2018-08-06T04:31:40.530Z,16.20
2018-08-06T04:34:08.078Z,16.30
2018-08-06T04:36:35.726Z,16.40
2018-08-06T04:39:04.335Z,16.40
2018-08-06T04:41:31.992Z,16.40
2018-08-06T04:43:59.560Z,16.50
2018-08-06T04:46:29.170Z,16.60
2018-08-06T04:48:56.803Z,16.60
2018-08-06T04:51:24.500Z,16.60
2018-08-06T04:53:52.121Z,16.60
2018-08-06T04:56:19.939Z,16.60
2018-08-06T04:58:59.515Z,16.70
2018-08-06T05:01:27.136Z,16.70
2018-08-06T05:03:57.159Z,16.70
2018-08-06T05:06:24.875Z,16.80
2018-08-06T05:08:52.471Z,16.90
2018-08-06T05:11:21.170Z,17.10
2018-08-06T05:13:48.805Z,17.20
2018-08-06T05:16:16.409Z,17.30
2018-08-06T05:18:47.767Z,17.40
2018-08-06T05:21:19.410Z,17.50
2018-08-06T05:23:54.141Z,17.60
2018-08-06T05:26:22.160Z,17.70
2018-08-06T05:28:51.028Z,17.90
2018-08-06T05:31:18.875Z,17.90
2018-08-06T05:33:46.483Z,17.90
2018-08-06T05:36:14.210Z,18.00
2018-08-06T05:41:44.263Z,18.20
2018-08-06T06:13:46.656Z,19.90
2018-08-06T06:16:25.637Z,20.00
2018-08-06T06:18:53.395Z,19.90
2018-08-06T06:21:21.081Z,20.20
2018-08-06T06:23:49.596Z,20.50
2018-08-06T06:26:17.312Z,20.80
2018-08-06T06:28:44.881Z,21.10
2018-08-06T06:31:12.654Z,21.30
2018-08-06T06:33:40.449Z,21.40
2018-08-06T06:36:08.184Z,21.60
2018-08-06T06:38:36.126Z,21.90
2018-08-06T06:41:04.036Z,22.20
2018-08-06T06:43:40.810Z,22.40
2018-08-06T06:46:11.222Z,22.60
2018-08-06T06:48:39.783Z,22.60
2018-08-06T06:51:12.691Z,22.60
2018-08-06T06:53:40.581Z,22.40
2018-08-06T06:56:21.120Z,22.60
2018-08-06T06:58:49.013Z,22.80
2018-08-06T07:01:16.768Z,23.20
2018-08-06T07:03:44.872Z,23.50
2018-08-06T07:06:13.950Z,23.70
2018-08-06T07:08:41.812Z,23.90
2018-08-06T07:14:02.272Z,24.00
2018-08-06T07:16:31.520Z,24.20
2018-08-06T07:18:59.527Z,24.20
2018-08-06T07:21:27.864Z,24.30
2018-08-06T07:23:55.918Z,24.40
2018-08-06T07:26:31.161Z,24.60
2018-08-06T07:28:58.955Z,24.60
2018-08-06T07:31:29.332Z,24.70
2018-08-06T07:33:57.061Z,24.80
2018-08-06T07:36:24.651Z,25.00
2018-08-06T07:38:52.394Z,25.10
2018-08-06T07:41:20.038Z,25.20
2018-08-06T07:43:56.484Z,25.40
2018-08-06T07:46:26.764Z,25.70
2018-08-06T07:48:54.398Z,26.00
2018-08-06T07:51:25.469Z,26.20
2018-08-06T07:53:53.137Z,26.30
2018-08-06T07:56:20.776Z,26.50
2018-08-06T07:58:48.381Z,26.60
2018-08-06T08:01:15.978Z,26.70
2018-08-06T08:03:47.166Z,26.80
2018-08-06T08:06:14.743Z,27.10
2018-08-06T08:08:42.368Z,27.00
2018-08-06T08:11:10.021Z,27.10
2018-08-06T08:13:37.579Z,27.50
2018-08-06T08:16:05.480Z,27.90
2018-08-06T08:18:33.103Z,28.30
2018-08-06T08:21:02.749Z,28.60
2018-08-06T08:23:30.530Z,28.90
2018-08-06T08:25:58.111Z,28.90
2018-08-06T08:28:26.734Z,29.00
2018-08-06T08:30:54.373Z,29.10
2018-08-06T08:33:21.977Z,29.20
2018-08-06T08:35:49.625Z,29.40
2018-08-06T08:38:29.969Z,29.40
2018-08-06T08:40:57.696Z,29.50
2018-08-06T08:43:32.113Z,29.70
2018-08-06T08:45:59.774Z,29.80
2018-08-06T08:48:27.331Z,29.80
2018-08-06T08:50:55.179Z,29.90
2018-08-06T08:53:22.766Z,30.00
2018-08-06T08:55:50.412Z,30.30
2018-08-06T08:58:18.058Z,30.20
2018-08-06T09:00:45.678Z,30.20
2018-08-06T09:03:13.312Z,30.20
2018-08-06T09:05:45.148Z,30.20
2018-08-06T09:08:12.674Z,30.30
2018-08-06T09:13:38.607Z,30.60
2018-08-06T09:16:06.209Z,30.80
2018-08-06T09:18:35.820Z,30.70
2018-08-06T09:21:03.421Z,30.80
2018-08-06T09:23:40.979Z,30.90
2018-08-06T09:26:08.496Z,31.00
2018-08-06T09:28:36.011Z,31.20
2018-08-06T09:31:03.602Z,31.00
2018-08-06T09:33:31.088Z,31.00
2018-08-06T09:35:58.668Z,30.90
2018-08-06T09:38:26.203Z,30.80
2018-08-06T09:40:53.773Z,31.00
2018-08-06T09:43:21.276Z,31.30
2018-08-06T09:45:52.603Z,31.40
2018-08-06T09:48:20.172Z,31.40
2018-08-06T09:50:47.714Z,31.40
2018-08-06T09:53:15.239Z,31.30
2018-08-06T09:55:50.949Z,31.40
2018-08-06T09:58:18.527Z,31.20
2018-08-06T10:00:51.598Z,31.40
2018-08-06T10:03:19.153Z,31.30
2018-08-06T10:05:46.835Z,31.60
2018-08-06T10:08:15.407Z,31.70
2018-08-06T10:10:43.048Z,31.90
2018-08-06T10:13:10.619Z,32.00
2018-08-06T10:15:38.261Z,32.00
2018-08-06T10:18:05.967Z,32.20
2018-08-06T10:20:38.183Z,32.40
2018-08-06T10:23:05.759Z,32.40
2018-08-06T10:25:33.323Z,32.30
2018-08-06T10:28:00.893Z,31.90
2018-08-06T10:30:28.532Z,31.90
2018-08-06T10:33:01.918Z,32.00
2018-08-06T10:35:29.506Z,32.10
2018-08-06T10:37:57.013Z,32.30
2018-08-06T10:40:24.811Z,32.30
2018-08-06T10:43:04.606Z,32.40
2018-08-06T10:45:32.181Z,32.70
2018-08-06T10:47:59.753Z,32.90
2018-08-06T10:50:27.471Z,33.00
2018-08-06T10:52:54.979Z,33.00
2018-08-06T10:55:22.510Z,33.10
2018-08-06T10:57:50.082Z,33.10
2018-08-06T11:00:18.881Z,33.20
2018-08-06T11:02:46.626Z,33.20
2018-08-06T11:05:18.029Z,33.40
2018-08-06T11:07:45.665Z,33.40
2018-08-06T11:13:01.361Z,33.70
2018-08-06T11:15:28.993Z,33.80
2018-08-06T11:17:56.674Z,33.70
2018-08-06T11:20:24.505Z,33.60
2018-08-06T11:23:02.641Z,33.50
2018-08-06T11:25:30.240Z,33.40
2018-08-06T11:28:02.988Z,33.00
2018-08-06T11:30:30.621Z,32.80
2018-08-06T11:32:58.204Z,32.90
2018-08-06T11:35:25.813Z,32.70
2018-08-06T11:37:53.346Z,32.70
2018-08-06T11:40:20.998Z,32.90
2018-08-06T11:42:48.926Z,33.00
2018-08-06T11:45:17.747Z,33.00
2018-08-06T11:47:45.374Z,33.20
2018-08-06T11:50:12.995Z,32.90
2018-08-06T11:52:40.618Z,33.20
2018-08-06T11:55:08.563Z,33.10
2018-08-06T11:57:36.328Z,33.10
2018-08-06T12:00:06.123Z,33.20
2018-08-06T12:02:33.744Z,33.20
2018-08-06T12:05:09.063Z,33.40
2018-08-06T12:13:23.962Z,33.60
2018-08-06T12:15:51.619Z,33.90
2018-08-06T12:18:19.251Z,34.10
2018-08-06T12:20:49.391Z,34.30
2018-08-06T12:23:28.653Z,34.30
2018-08-06T12:25:57.745Z,34.00
2018-08-06T12:28:25.554Z,33.90
2018-08-06T12:30:53.415Z,33.90
2018-08-06T12:33:21.544Z,34.00
2018-08-06T12:35:53.787Z,33.90
2018-08-06T12:38:21.337Z,34.10
2018-08-06T12:40:50.500Z,34.30
2018-08-06T12:43:28.660Z,34.30
2018-08-06T12:46:11.317Z,34.20
2018-08-06T12:48:40.718Z,34.20
2018-08-06T12:51:09.598Z,34.30
2018-08-06T12:53:43.275Z,34.20
2018-08-06T12:56:13.633Z,34.00
2018-08-06T12:58:51.599Z,33.80
2018-08-06T13:01:20.174Z,33.70
2018-08-06T13:03:52.513Z,33.80
2018-08-06T13:06:21.401Z,33.90
2018-08-06T13:08:51.302Z,33.90
2018-08-06T13:11:19.013Z,33.80
2018-08-06T13:13:46.615Z,33.70
2018-08-06T13:16:16.557Z,33.80
2018-08-06T13:18:44.487Z,33.80
2018-08-06T13:21:12.072Z,33.80
2018-08-06T13:23:40.652Z,33.90
2018-08-06T13:26:09.636Z,34.00
2018-08-06T13:28:37.474Z,34.30
2018-08-06T13:31:05.084Z,34.40
2018-08-06T13:33:32.624Z,34.40
2018-08-06T13:36:00.188Z,34.50
2018-08-06T13:38:27.943Z,34.40
2018-08-06T13:40:56.604Z,34.40
2018-08-06T13:43:24.565Z,34.40
2018-08-06T13:45:52.379Z,34.40
2018-08-06T13:48:37.515Z,34.50
2018-08-06T13:51:09.139Z,34.40
2018-08-06T13:53:36.718Z,34.30
2018-08-06T13:56:04.319Z,34.30
2018-08-06T13:58:35.011Z,34.20
2018-08-06T14:01:09.838Z,34.20
2018-08-06T14:03:37.548Z,34.00
2018-08-06T14:06:05.207Z,33.80
2018-08-06T14:08:36.267Z,33.70
2018-08-06T14:11:13.375Z,33.70
2018-08-06T14:13:41.168Z,33.50
2018-08-06T14:16:20.659Z,33.70
2018-08-06T14:18:48.346Z,33.80
2018-08-06T14:21:15.965Z,34.00
2018-08-06T14:23:45.034Z,34.00
2018-08-06T14:26:12.767Z,34.00
2018-08-06T14:28:40.577Z,34.00
2018-08-06T14:31:09.617Z,34.00
2018-08-06T14:33:37.469Z,33.90
2018-08-06T14:36:06.986Z,33.70
2018-08-06T14:38:35.048Z,33.50
2018-08-06T14:41:02.930Z,33.20
2018-08-06T14:43:30.576Z,33.30
2018-08-06T14:45:58.177Z,33.50
2018-08-06T14:48:25.820Z,33.50
2018-08-06T14:50:53.630Z,33.50
2018-08-06T14:53:21.234Z,33.50
2018-08-06T14:55:48.884Z,33.60
2018-08-06T14:58:17.974Z,33.70
2018-08-06T15:06:11.940Z,33.70
2018-08-06T15:09:07.099Z,33.50
2018-08-06T15:11:37.367Z,33.50
2018-08-06T15:17:01.869Z,33.50
2018-08-06T15:19:36.094Z,33.50
2018-08-06T15:24:49.239Z,33.50
2018-08-06T15:27:16.992Z,33.60
2018-08-06T15:29:48.647Z,33.60
2018-08-06T15:35:19.133Z,33.20
2018-08-06T15:38:22.719Z,32.90
2018-08-06T15:46:22.502Z,32.90
2018-08-06T15:48:50.367Z,32.80
2018-08-06T15:51:19.949Z,32.70
2018-08-06T15:53:47.746Z,32.60
2018-08-06T15:56:20.675Z,32.50
2018-08-06T15:58:49.165Z,32.50
2018-08-06T16:01:17.274Z,32.50
2018-08-06T16:03:45.282Z,32.50
2018-08-06T16:06:14.605Z,32.50
2018-08-06T16:08:52.230Z,32.50
2018-08-06T16:11:21.752Z,32.50
2018-08-06T16:13:56.620Z,32.50
2018-08-06T16:19:05.235Z,32.40
2018-08-06T19:49:10.765Z,27.50
2018-08-06T19:51:38.580Z,27.40
2018-08-06T19:54:06.404Z,27.30
2018-08-06T20:23:00.786Z,26.80
2018-08-06T20:25:28.194Z,26.70
2018-08-06T20:28:09.358Z,26.60
2018-08-06T20:30:37.463Z,26.50
2018-08-06T20:33:14.677Z,26.40
2018-08-06T20:35:48.429Z,26.30
2018-08-06T20:43:52.285Z,26.00
2018-08-06T20:49:15.539Z,25.90
2018-08-06T20:52:01.557Z,25.80
2018-08-06T20:54:29.956Z,25.70
2018-08-06T20:56:57.899Z,25.50
2018-08-06T20:59:29.268Z,25.50
2018-08-06T21:05:33.895Z,25.30
2018-08-06T21:08:02.458Z,25.30
2018-08-06T21:14:00.580Z,25.20
2018-08-06T21:16:28.975Z,25.20
2018-08-06T21:18:57.305Z,25.00
2018-08-06T21:21:25.789Z,25.00
2018-08-06T21:23:54.541Z,25.00
2018-08-06T21:26:22.330Z,24.80
2018-08-06T21:28:50.890Z,24.80
2018-08-06T21:31:18.531Z,24.60
2018-08-06T21:33:46.902Z,24.70
2018-08-06T21:36:15.297Z,24.60
2018-08-06T21:38:43.081Z,24.60
2018-08-06T21:41:10.818Z,24.60
2018-08-06T21:43:38.511Z,24.60
2018-08-06T21:46:06.168Z,24.50
2018-08-06T21:48:35.849Z,24.50
2018-08-06T21:51:04.605Z,24.50
2018-08-06T21:53:32.238Z,24.40
2018-08-06T21:55:59.890Z,24.40
2018-08-06T21:58:27.546Z,24.40
2018-08-06T22:00:55.187Z,24.30
2018-08-06T22:03:22.827Z,24.20
2018-08-06T22:05:50.498Z,24.20
2018-08-06T22:08:18.153Z,24.10
2018-08-06T22:10:45.798Z,24.10
2018-08-06T22:13:13.427Z,24.20
2018-08-06T22:15:41.100Z,24.20
2018-08-06T22:18:09.355Z,24.10
2018-08-06T22:20:36.959Z,24.00
2018-08-06T22:23:04.688Z,24.10
2018-08-06T22:25:32.350Z,24.10
2018-08-06T22:28:00.024Z,24.10
2018-08-06T22:30:27.699Z,24.10
2018-08-06T22:32:55.315Z,24.10
2018-08-06T22:35:22.955Z,24.00
2018-08-06T22:37:55.334Z,24.00
2018-08-06T22:40:22.961Z,24.00
2018-08-06T22:42:50.546Z,23.90
2018-08-06T22:45:18.275Z,24.00
2018-08-06T22:50:33.583Z,23.80
2018-08-06T22:53:03.342Z,23.80
2018-08-06T22:55:35.385Z,23.70
2018-08-06T22:58:03.318Z,23.70
2018-08-06T23:00:30.927Z,23.70
2018-08-06T23:02:58.477Z,23.70
2018-08-06T23:05:31.273Z,23.80
2018-08-06T23:07:59.941Z,23.70
2018-08-06T23:10:27.676Z,23.80
2018-08-06T23:12:58.604Z,23.80
2018-08-06T23:15:26.258Z,23.70
2018-08-06T23:17:53.906Z,23.70
2018-08-06T23:20:21.507Z,23.70
2018-08-06T23:22:49.098Z,23.70
2018-08-06T23:25:17.150Z,23.60
2018-08-06T23:27:45.391Z,23.60
2018-08-06T23:30:15.014Z,23.60
2018-08-06T23:32:43.544Z,23.50
2018-08-06T23:35:12.339Z,23.50
2018-08-06T23:37:41.038Z,23.50
2018-08-06T23:40:14.719Z,23.50
2018-08-06T23:42:43.184Z,23.40
2018-08-06T23:45:12.093Z,23.40
2018-08-06T23:47:40.228Z,23.40
2018-08-06T23:53:04.656Z,23.20
2018-08-06T23:55:32.167Z,23.20
2018-08-06T23:57:59.778Z,23.10
